Time;durP1;ratioP1;P1;durP2;ratioP2;P2;SDS_P1;SDS_P2;PMS_P1;PMS_P2;Temp;Humidity;BMP_temperature;BMP_pressure;BME280_temperature;BME280_humidity;BME280_pressure;Samples;Min_cycle;Max_cycle;Signal;HPM_P1;HPM_P2
2022/07/21 00:01:10;;;;;;;8.18;7.57;;;24.20;68.90;;;;;;5009010;28;20183;-70
2022/07/21 00:03:37;;;;;;;8.23;7.53;;;24.20;68.90;;;;;;5009129;28;20216;-70
2022/07/21 00:06:04;;;;;;;7.25;6.75;;;24.20;69.00;;;;;;4992608;28;20246;-70
2022/07/21 00:08:30;;;;;;;7.70;7.10;;;24.20;68.90;;;;;;4992622;28;20307;-70
2022/07/21 00:10:56;;;;;;;7.65;6.95;;;24.20;69.00;;;;;;5008681;28;20199;-70
2022/07/21 00:13:22;;;;;;;8.05;7.35;;;24.20;69.10;;;;;;4993805;28;20189;-71
2022/07/21 00:15:48;;;;;;;7.93;7.32;;;24.20;69.00;;;;;;5008745;28;20204;-70
2022/07/21 00:18:16;;;;;;;7.93;7.32;;;24.20;69.00;;;;;;5008326;28;20189;-70
2022/07/21 00:20:42;;;;;;;7.90;7.30;;;24.20;69.00;;;;;;5008197;28;20227;-70
2022/07/21 00:23:08;;;;;;;8.35;7.75;;;24.20;69.00;;;;;;4993552;28;20189;-70
2022/07/21 00:25:33;;;;;;;7.63;7.00;;;24.20;69.00;;;;;;5008880;28;20571;-71
2022/07/21 00:27:59;;;;;;;8.48;7.68;;;24.20;69.00;;;;;;5008791;28;20302;-71
2022/07/21 00:30:26;;;;;;;8.02;7.32;;;24.20;69.00;;;;;;5008097;28;20181;-70
2022/07/21 00:32:52;;;;;;;7.65;7.05;;;24.20;69.00;;;;;;5008688;28;20191;-70
2022/07/21 00:35:17;;;;;;;8.40;7.70;;;24.20;69.00;;;;;;5008450;28;20299;-70
2022/07/21 00:37:43;;;;;;;8.07;7.38;;;24.20;69.00;;;;;;5008504;28;20193;-70
2022/07/21 00:40:10;;;;;;;7.72;7.13;;;24.20;69.00;;;;;;5007962;28;20288;-70
2022/07/21 00:42:37;;;;;;;7.63;7.03;;;24.20;69.00;;;;;;5008196;28;20211;-70
2022/07/21 00:45:06;;;;;;;8.60;7.88;;;24.20;69.10;;;;;;5008685;28;20696;-70
2022/07/21 00:47:33;;;;;;;7.70;7.10;;;24.20;69.10;;;;;;4991936;28;20216;-70
2022/07/21 00:50:02;;;;;;;8.20;7.50;;;24.20;69.20;;;;;;4992692;28;20184;-70
2022/07/21 00:52:28;;;;;;;7.43;6.82;;;24.20;69.20;;;;;;5008617;28;20189;-70
2022/07/21 00:54:54;;;;;;;8.00;7.40;;;24.10;69.10;;;;;;5007963;28;20200;-70
2022/07/21 00:57:20;;;;;;;7.72;7.13;;;24.20;69.40;;;;;;5008227;28;20177;-70
2022/07/21 00:59:47;;;;;;;8.10;7.50;;;24.10;69.20;;;;;;5007672;28;20181;-70
2022/07/21 01:02:13;;;;;;;8.18;7.47;;;24.20;69.20;;;;;;5008225;28;20181;-70
2022/07/21 01:04:39;;;;;;;8.18;7.47;;;24.20;69.20;;;;;;5008150;28;20275;-70
2022/07/21 01:07:06;;;;;;;7.65;7.05;;;24.20;69.30;;;;;;5008030;28;20233;-71
2022/07/21 01:09:34;;;;;;;7.60;7.00;;;24.20;69.40;;;;;;4992384;28;20173;-70
2022/07/21 01:12:01;;;;;;;8.20;7.60;;;24.20;69.40;;;;;;5008420;28;20181;-70
2022/07/21 01:14:27;;;;;;;7.72;7.13;;;24.10;69.30;;;;;;4992973;28;20215;-70
2022/07/21 01:16:54;;;;;;;7.57;6.97;;;24.10;69.30;;;;;;5008108;28;20212;-70
2022/07/21 01:19:19;;;;;;;7.97;7.32;;;24.10;69.30;;;;;;5007491;28;20578;-70
2022/07/21 01:21:48;;;;;;;7.95;7.30;;;24.10;69.20;;;;;;4992908;28;20196;-70
2022/07/21 01:24:15;;;;;;;8.30;7.60;;;24.10;69.30;;;;;;5007962;28;20231;-70
2022/07/21 01:26:44;;;;;;;7.70;7.10;;;24.20;69.20;;;;;;4992741;28;20212;-71
2022/07/21 01:29:11;;;;;;;7.40;6.80;;;24.10;69.10;;;;;;5008221;28;20184;-71
2022/07/21 01:31:40;;;;;;;7.90;7.30;;;24.10;69.30;;;;;;4995162;28;20192;-70
2022/07/21 01:34:08;;;;;;;7.70;7.10;;;24.10;69.20;;;;;;4995827;28;20256;-70
2022/07/21 01:36:34;;;;;;;7.20;6.60;;;24.10;69.20;;;;;;5011847;28;20287;-70
2022/07/21 01:41:46;;;;;;;7.35;6.80;;;24.10;69.30;;;;;;5011650;28;20181;-70
2022/07/21 01:44:13;;;;;;;7.57;6.95;;;24.20;69.40;;;;;;5011404;28;20185;-70
2022/07/21 01:46:44;;;;;;;8.65;7.15;;;24.10;69.30;;;;;;5011735;28;20205;-70
2022/07/21 01:49:12;;;;;;;7.65;7.05;;;24.10;69.40;;;;;;5011560;28;20189;-70
2022/07/21 01:51:38;;;;;;;7.25;6.65;;;24.10;69.40;;;;;;4995834;28;20193;-70
2022/07/21 01:54:06;;;;;;;7.65;6.95;;;24.10;70.10;;;;;;5011419;28;20189;-70
2022/07/21 01:56:34;;;;;;;7.65;7.05;;;24.10;69.40;;;;;;4996256;28;20232;-70
2022/07/21 01:58:59;;;;;;;6.80;6.22;;;24.10;69.50;;;;;;4991843;28;20186;-71
2022/07/21 02:01:28;;;;;;;7.57;7.07;;;24.10;69.50;;;;;;4991252;28;20224;-70
2022/07/21 02:03:57;;;;;;;8.25;7.55;;;24.10;69.40;;;;;;4991847;28;20182;-70
2022/07/21 02:06:24;;;;;;;7.88;7.25;;;24.10;69.60;;;;;;4991586;28;20431;-71
2022/07/21 02:08:50;;;;;;;7.45;6.95;;;24.10;69.60;;;;;;4991720;28;20206;-71
2022/07/21 02:11:17;;;;;;;6.65;6.15;;;24.10;69.50;;;;;;4976132;28;20193;-70
2022/07/21 02:13:44;;;;;;;8.23;7.43;;;24.10;69.60;;;;;;4991672;28;20190;-71
2022/07/21 02:16:11;;;;;;;7.63;6.93;;;24.10;69.60;;;;;;4991523;28;20272;-71
2022/07/21 02:18:37;;;;;;;7.57;6.97;;;24.10;69.60;;;;;;4991324;28;20212;-70
2022/07/21 02:21:04;;;;;;;7.50;6.90;;;24.10;69.60;;;;;;4975743;28;20185;-70
2022/07/21 02:23:32;;;;;;;7.78;7.18;;;24.10;69.50;;;;;;4991400;28;20190;-70
2022/07/21 02:25:58;;;;;;;7.53;6.93;;;24.10;69.70;;;;;;4991200;28;20209;-70
2022/07/21 02:28:24;;;;;;;7.70;7.10;;;24.10;69.60;;;;;;4975282;28;20718;-70
2022/07/21 02:30:52;;;;;;;7.70;7.10;;;24.10;69.60;;;;;;4990988;28;20190;-70
2022/07/21 02:33:19;;;;;;;8.30;7.60;;;24.10;69.70;;;;;;4991272;28;20236;-70
2022/07/21 02:35:44;;;;;;;7.80;7.20;;;24.10;69.50;;;;;;4991102;28;20209;-70
2022/07/21 02:38:11;;;;;;;7.22;6.72;;;24.10;69.80;;;;;;4991389;28;20177;-70
2022/07/21 02:40:38;;;;;;;7.60;7.00;;;24.10;69.70;;;;;;4990872;28;20188;-70
2022/07/21 02:43:05;;;;;;;7.72;7.15;;;24.10;69.70;;;;;;4990390;28;20197;-70
2022/07/21 02:45:32;;;;;;;7.53;6.93;;;24.10;69.80;;;;;;4991206;28;20213;-70
2022/07/21 02:48:04;;;;;;;7.65;7.05;;;24.10;69.80;;;;;;4991202;28;20213;-70
2022/07/21 02:50:34;;;;;;;7.53;6.93;;;24.10;69.80;;;;;;4990403;28;20181;-70
2022/07/21 02:53:07;;;;;;;7.57;7.05;;;24.10;69.80;;;;;;4990809;28;20193;-70
2022/07/21 02:55:34;;;;;;;7.07;6.47;;;24.10;69.80;;;;;;5000459;28;20241;-70
2022/07/21 02:58:14;;;;;;;7.63;6.93;;;24.10;69.80;;;;;;4993889;28;20193;-70
2022/07/21 03:00:57;;;;;;;8.05;7.40;;;24.10;69.80;;;;;;4993581;28;20191;-70
2022/07/21 03:03:27;;;;;;;7.45;6.85;;;24.10;69.70;;;;;;5010550;28;20209;-71
2022/07/21 03:05:53;;;;;;;7.55;6.93;;;24.10;69.80;;;;;;5010075;28;20283;-71
2022/07/21 03:08:20;;;;;;;7.22;6.63;;;24.10;69.70;;;;;;4993827;28;20299;-71
2022/07/21 03:10:46;;;;;;;7.35;6.70;;;24.10;69.80;;;;;;4993499;28;20185;-70
2022/07/21 03:13:12;;;;;;;7.20;6.70;;;24.10;69.70;;;;;;5009989;28;20661;-70
2022/07/21 03:15:39;;;;;;;8.32;7.63;;;24.10;69.70;;;;;;4994054;28;20262;-70
2022/07/21 03:18:05;;;;;;;7.15;6.65;;;24.10;69.80;;;;;;4995212;28;20181;-70
2022/07/21 03:20:34;;;;;;;7.70;7.03;;;24.10;69.90;;;;;;4977106;28;20189;-70
2022/07/21 03:23:00;;;;;;;7.25;6.65;;;24.10;69.80;;;;;;4993641;28;20184;-70
2022/07/21 03:25:27;;;;;;;7.90;7.22;;;24.10;69.90;;;;;;5010116;28;20255;-70
2022/07/21 03:27:53;;;;;;;7.20;6.60;;;24.10;69.90;;;;;;4993478;28;20355;-70
2022/07/21 03:30:21;;;;;;;7.68;7.07;;;24.10;69.90;;;;;;4994117;28;20185;-70
2022/07/21 03:32:48;;;;;;;7.18;6.57;;;24.10;70.00;;;;;;4993832;28;20165;-70
2022/07/21 03:35:14;;;;;;;6.60;6.10;;;24.10;69.90;;;;;;5009534;28;20869;-70
2022/07/21 03:37:46;;;;;;;7.90;7.20;;;24.10;69.90;;;;;;5009400;28;20327;-70
2022/07/21 03:40:15;;;;;;;6.78;6.28;;;24.10;69.90;;;;;;5009114;28;20689;-70
2022/07/21 03:42:41;;;;;;;7.07;6.57;;;24.10;69.90;;;;;;4992917;28;20645;-70
2022/07/21 03:45:08;;;;;;;6.90;6.30;;;24.10;70.00;;;;;;4993044;28;20212;-70
2022/07/21 03:47:35;;;;;;;7.40;6.80;;;24.10;69.90;;;;;;4993083;28;20220;-71
2022/07/21 03:50:00;;;;;;;6.78;6.28;;;24.10;69.90;;;;;;4976793;28;20180;-70
2022/07/21 03:52:26;;;;;;;7.20;6.60;;;24.10;70.00;;;;;;4992960;28;20644;-70
2022/07/21 03:55:07;;;;;;;7.47;6.88;;;24.10;70.00;;;;;;4993138;28;20184;-70
2022/07/21 03:57:49;;;;;;;7.82;7.10;;;24.10;69.90;;;;;;4976528;28;20191;-70
2022/07/21 04:00:24;;;;;;;6.40;5.90;;;24.10;70.10;;;;;;4992374;28;20270;-70
2022/07/21 04:02:50;;;;;;;7.53;6.93;;;24.10;70.10;;;;;;4994089;28;20176;-70
2022/07/21 04:05:19;;;;;;;6.75;6.25;;;24.10;70.20;;;;;;4992656;28;20212;-70
2022/07/21 04:07:47;;;;;;;7.32;6.55;;;24.10;71.00;;;;;;5009343;28;20296;-70
2022/07/21 04:10:17;;;;;;;6.60;6.10;;;24.10;70.20;;;;;;4992348;28;20220;-70
2022/07/21 04:12:43;;;;;;;7.10;6.53;;;24.10;70.20;;;;;;4992859;28;20185;-70
2022/07/21 04:15:11;;;;;;;6.40;5.90;;;24.10;70.20;;;;;;4992706;28;20649;-71
2022/07/21 04:17:38;;;;;;;6.85;6.32;;;24.10;70.20;;;;;;4992781;28;20185;-71
2022/07/21 04:20:06;;;;;;;6.60;5.90;;;24.00;70.00;;;;;;4992126;28;20180;-70
2022/07/21 04:22:32;;;;;;;6.68;6.18;;;24.10;70.10;;;;;;5008968;28;20192;-71
2022/07/21 04:24:59;;;;;;;6.72;6.22;;;24.10;70.20;;;;;;4992682;28;20223;-70
2022/07/21 04:27:26;;;;;;;6.28;5.78;;;24.10;70.20;;;;;;5008923;28;20224;-71
2022/07/21 04:29:52;;;;;;;6.95;6.28;;;24.10;70.30;;;;;;4993116;28;20185;-71
2022/07/21 04:32:18;;;;;;;6.78;6.28;;;24.00;70.20;;;;;;4993351;28;20177;-70
2022/07/21 04:34:44;;;;;;;6.55;6.05;;;24.10;70.40;;;;;;4992097;28;20246;-70
2022/07/21 04:37:10;;;;;;;6.55;6.05;;;24.10;70.50;;;;;;4992100;28;20227;-70
2022/07/21 04:39:35;;;;;;;6.88;6.18;;;24.10;70.60;;;;;;4991600;28;20275;-70
2022/07/21 04:42:01;;;;;;;7.25;6.55;;;24.10;70.70;;;;;;5008356;28;20181;-70
2022/07/21 04:44:27;;;;;;;6.95;6.35;;;24.00;70.70;;;;;;5008295;28;20292;-70
2022/07/21 04:46:53;;;;;;;6.70;6.20;;;24.10;70.80;;;;;;4992221;28;20219;-70
2022/07/21 04:49:18;;;;;;;6.28;5.78;;;24.10;70.80;;;;;;4993536;28;20185;-70
2022/07/21 04:51:44;;;;;;;7.18;6.57;;;24.10;70.90;;;;;;4991806;28;20272;-70
2022/07/21 04:54:14;;;;;;;6.88;6.28;;;24.00;70.70;;;;;;5008617;28;20266;-70
2022/07/21 04:56:44;;;;;;;6.38;5.88;;;24.00;70.80;;;;;;5008130;28;20267;-70
2022/07/21 04:59:11;;;;;;;6.18;5.68;;;24.10;70.90;;;;;;4992195;28;20664;-70
2022/07/21 05:01:38;;;;;;;6.55;5.95;;;24.10;70.90;;;;;;5007638;28;20255;-70
2022/07/21 05:04:05;;;;;;;6.72;6.20;;;24.10;70.90;;;;;;5004389;28;20188;-70
2022/07/21 05:06:32;;;;;;;6.18;5.78;;;24.10;70.90;;;;;;4991808;28;20263;-70
2022/07/21 05:08:58;;;;;;;6.47;5.97;;;24.10;70.90;;;;;;5008385;28;20220;-71
2022/07/21 05:11:24;;;;;;;6.85;6.32;;;24.10;71.00;;;;;;5007598;28;20195;-70
2022/07/21 05:13:50;;;;;;;6.72;6.22;;;24.10;71.00;;;;;;5007703;28;20181;-70
2022/07/21 05:16:16;;;;;;;7.18;6.57;;;24.10;70.80;;;;;;4991118;28;20206;-70
2022/07/21 05:18:42;;;;;;;6.25;5.70;;;24.10;71.00;;;;;;5007789;28;20265;-70
2022/07/21 05:21:08;;;;;;;6.40;5.90;;;24.10;71.00;;;;;;5007121;28;20192;-70
2022/07/21 05:23:34;;;;;;;6.75;6.22;;;24.10;71.00;;;;;;5007749;28;20570;-70
2022/07/21 05:26:00;;;;;;;6.13;5.63;;;24.10;71.10;;;;;;5007529;28;20216;-70
2022/07/21 05:28:28;;;;;;;6.50;5.90;;;24.10;71.40;;;;;;5007445;28;20304;-70
2022/07/21 05:30:54;;;;;;;6.55;6.05;;;24.10;71.20;;;;;;5006929;28;20600;-70
2022/07/21 05:33:20;;;;;;;6.25;5.80;;;24.10;71.30;;;;;;4991008;28;20275;-70
2022/07/21 05:35:46;;;;;;;6.45;5.95;;;24.10;71.30;;;;;;4991002;28;20258;-71
2022/07/21 05:38:11;;;;;;;6.47;5.97;;;24.10;71.40;;;;;;5007496;28;20188;-71
2022/07/21 05:40:37;;;;;;;5.63;5.22;;;24.10;71.40;;;;;;5006734;28;20193;-70
2022/07/21 05:43:03;;;;;;;6.93;6.43;;;24.10;71.40;;;;;;5007025;28;20264;-71
2022/07/21 05:45:29;;;;;;;6.50;6.00;;;24.10;72.10;;;;;;4995320;28;20205;-70
2022/07/21 05:47:55;;;;;;;5.95;5.55;;;24.10;71.40;;;;;;5003977;28;20212;-71
2022/07/21 05:50:20;;;;;;;6.63;6.05;;;24.10;71.40;;;;;;4977484;28;20188;-71
2022/07/21 05:52:46;;;;;;;6.90;5.38;;;24.10;71.40;;;;;;5000975;28;20190;-71
2022/07/21 05:55:12;;;;;;;6.00;5.50;;;24.10;71.40;;;;;;4989169;28;20219;-71
2022/07/21 05:57:39;;;;;;;5.97;5.40;;;24.10;71.40;;;;;;4990948;28;20669;-72
2022/07/21 06:00:07;;;;;;;5.80;5.30;;;24.10;71.30;;;;;;4990406;28;20225;-70
2022/07/21 06:02:34;;;;;;;6.40;5.90;;;24.10;71.30;;;;;;4992549;28;20625;-70
2022/07/21 06:05:00;;;;;;;6.00;5.55;;;24.10;71.40;;;;;;4990874;28;20192;-70
2022/07/21 06:07:26;;;;;;;5.90;5.30;;;24.10;71.30;;;;;;4990658;28;20213;-70
2022/07/21 06:09:52;;;;;;;6.50;5.93;;;24.10;71.30;;;;;;4987748;28;20189;-71
2022/07/21 06:12:18;;;;;;;6.22;5.63;;;24.10;71.30;;;;;;4985653;28;20196;-71
2022/07/21 06:14:44;;;;;;;6.70;6.20;;;24.10;71.30;;;;;;4998352;28;20201;-70
2022/07/21 06:17:10;;;;;;;6.63;6.10;;;24.10;71.40;;;;;;5008017;28;20280;-70
2022/07/21 06:19:35;;;;;;;6.28;5.78;;;24.20;71.50;;;;;;4994286;28;20640;-70
2022/07/21 06:22:04;;;;;;;6.55;6.03;;;24.10;71.40;;;;;;4993756;28;20276;-70
2022/07/21 06:24:30;;;;;;;6.35;5.85;;;24.10;71.40;;;;;;5010425;28;20216;-70
2022/07/21 06:26:56;;;;;;;6.07;5.57;;;24.10;71.50;;;;;;4993643;28;20240;-70
2022/07/21 06:29:24;;;;;;;6.78;6.07;;;24.10;71.50;;;;;;5010671;28;20185;-70
2022/07/21 06:31:51;;;;;;;6.47;5.93;;;24.10;71.40;;;;;;5009803;28;20195;-70
2022/07/21 06:34:16;;;;;;;6.10;5.63;;;24.10;71.40;;;;;;5010300;28;20216;-70
2022/07/21 06:36:42;;;;;;;6.40;5.90;;;24.10;71.40;;;;;;5010177;28;20212;-70
2022/07/21 06:39:12;;;;;;;7.07;6.47;;;24.20;71.50;;;;;;4995022;28;20699;-71
2022/07/21 06:41:39;;;;;;;6.18;5.68;;;24.10;71.40;;;;;;5009691;28;20176;-71
2022/07/21 06:44:12;;;;;;;6.32;5.82;;;24.20;71.50;;;;;;5008831;28;20700;-71
2022/07/21 06:46:37;;;;;;;6.93;6.28;;;24.20;71.40;;;;;;4993539;28;20236;-70
2022/07/21 06:49:03;;;;;;;6.28;5.78;;;24.10;71.40;;;;;;5009821;28;20712;-70
2022/07/21 06:51:29;;;;;;;6.28;5.78;;;24.10;71.40;;;;;;5009575;28;20196;-70
2022/07/21 06:53:55;;;;;;;6.47;5.88;;;24.10;71.30;;;;;;5010007;28;20185;-70
2022/07/21 06:56:21;;;;;;;6.38;5.88;;;24.10;71.40;;;;;;5009717;28;20219;-70
2022/07/21 06:58:48;;;;;;;5.55;5.15;;;24.20;71.50;;;;;;4994747;28;20185;-70
2022/07/21 07:01:16;;;;;;;6.90;6.22;;;24.20;71.40;;;;;;5009080;28;20196;-70
2022/07/21 07:03:43;;;;;;;6.25;5.75;;;24.10;71.40;;;;;;5002088;28;20271;-70
2022/07/21 07:06:09;;;;;;;6.30;5.70;;;24.10;71.40;;;;;;4993317;28;20205;-70
2022/07/21 07:08:36;;;;;;;6.13;5.55;;;24.20;71.50;;;;;;4993337;28;20227;-70
2022/07/21 07:11:04;;;;;;;6.10;5.60;;;24.20;71.40;;;;;;4992692;28;20185;-70
2022/07/21 07:13:29;;;;;;;6.35;5.85;;;24.10;71.40;;;;;;5009708;28;20192;-70
2022/07/21 07:15:55;;;;;;;6.38;5.78;;;24.20;71.50;;;;;;4993344;28;20209;-70
2022/07/21 07:18:23;;;;;;;6.00;5.50;;;24.20;71.50;;;;;;5009167;28;20185;-70
2022/07/21 07:20:50;;;;;;;6.38;5.82;;;24.20;71.50;;;;;;4992597;28;20210;-70
2022/07/21 07:23:16;;;;;;;6.05;5.60;;;24.20;71.50;;;;;;4994200;28;20256;-70
2022/07/21 07:25:42;;;;;;;6.40;5.82;;;24.20;71.50;;;;;;5009312;28;20299;-70
2022/07/21 07:28:08;;;;;;;6.70;6.10;;;24.20;71.50;;;;;;5008975;28;20217;-70
2022/07/21 07:30:35;;;;;;;5.63;5.22;;;24.20;71.50;;;;;;4992282;28;20247;-70
2022/07/21 07:33:01;;;;;;;6.50;5.75;;;24.20;71.40;;;;;;4992493;28;20181;-70
2022/07/21 07:35:27;;;;;;;5.65;5.25;;;24.20;71.50;;;;;;4976688;28;20205;-70
2022/07/21 07:37:53;;;;;;;5.85;5.35;;;24.20;71.50;;;;;;4992911;28;20670;-70
2022/07/21 07:40:22;;;;;;;6.93;6.25;;;24.20;71.50;;;;;;4992142;28;20193;-70
2022/07/21 07:42:49;;;;;;;6.40;5.90;;;24.20;71.40;;;;;;5008587;28;20232;-70
2022/07/21 07:45:15;;;;;;;6.13;5.63;;;24.20;71.30;;;;;;4992364;28;20209;-70
2022/07/21 07:47:42;;;;;;;5.78;5.28;;;24.20;71.30;;;;;;4992492;28;20266;-70
2022/07/21 07:50:12;;;;;;;6.22;5.63;;;24.20;71.30;;;;;;4975764;28;20204;-70
2022/07/21 07:52:40;;;;;;;6.25;5.70;;;24.20;71.20;;;;;;4992451;28;20226;-70
2022/07/21 07:55:10;;;;;;;6.28;5.78;;;24.20;71.40;;;;;;4989845;28;20313;-71
2022/07/21 07:57:40;;;;;;;6.25;5.75;;;24.20;71.50;;;;;;4992347;28;20192;-70
2022/07/21 08:00:11;;;;;;;6.35;5.80;;;24.20;71.50;;;;;;4999544;28;20198;-70
2022/07/21 08:02:40;;;;;;;5.60;5.18;;;24.20;71.40;;;;;;4989216;28;20185;-70
2022/07/21 08:05:10;;;;;;;6.20;5.78;;;24.20;71.40;;;;;;4988910;28;20201;-70
2022/07/21 08:07:38;;;;;;;5.97;5.57;;;24.20;71.40;;;;;;4988935;28;20279;-70
2022/07/21 08:10:11;;;;;;;6.22;5.68;;;24.20;71.40;;;;;;4972145;28;20182;-70
2022/07/21 08:12:38;;;;;;;6.35;5.75;;;24.20;71.20;;;;;;4972798;28;20185;-70
2022/07/21 08:15:05;;;;;;;6.45;5.97;;;24.20;71.50;;;;;;4972734;28;20588;-70
2022/07/21 08:17:31;;;;;;;5.53;5.13;;;24.20;71.40;;;;;;4972296;28;20218;-70
2022/07/21 08:19:57;;;;;;;6.18;5.57;;;24.20;71.40;;;;;;4971940;28;20201;-70
2022/07/21 08:22:22;;;;;;;5.93;5.43;;;24.20;71.30;;;;;;4972709;28;20190;-70
2022/07/21 08:24:48;;;;;;;6.43;5.93;;;24.20;71.40;;;;;;4972608;28;20189;-70
2022/07/21 08:27:14;;;;;;;5.80;5.30;;;24.20;71.30;;;;;;4972466;28;20252;-70
2022/07/21 08:29:40;;;;;;;5.65;5.15;;;24.30;71.20;;;;;;4972447;28;20185;-70
2022/07/21 08:32:06;;;;;;;5.68;5.18;;;24.30;71.10;;;;;;4955757;28;20188;-70
2022/07/21 08:34:31;;;;;;;5.93;5.43;;;24.30;71.10;;;;;;4988437;28;20197;-70
2022/07/21 08:36:57;;;;;;;5.60;5.20;;;24.30;71.20;;;;;;4972242;28;20209;-70
2022/07/21 08:39:23;;;;;;;6.07;5.57;;;24.30;71.20;;;;;;4971878;28;20197;-70
2022/07/21 08:41:51;;;;;;;5.95;5.45;;;24.30;71.30;;;;;;4987942;28;20276;-70
2022/07/21 08:44:19;;;;;;;5.88;5.47;;;24.30;71.20;;;;;;4972946;28;20683;-70
2022/07/21 08:46:50;;;;;;;6.18;5.60;;;24.30;71.30;;;;;;4971912;28;20211;-70
2022/07/21 08:49:24;;;;;;;6.25;5.65;;;24.40;71.40;;;;;;4988196;28;20223;-70
2022/07/21 08:51:51;;;;;;;6.00;5.50;;;24.40;71.30;;;;;;4987681;28;20182;-71
2022/07/21 08:54:20;;;;;;;5.40;5.00;;;24.40;71.10;;;;;;4971977;28;20277;-70
2022/07/21 08:56:46;;;;;;;5.80;5.30;;;24.40;71.00;;;;;;4971692;28;20217;-70
2022/07/21 08:59:12;;;;;;;5.25;4.85;;;24.40;71.80;;;;;;4974319;28;20193;-70
2022/07/21 09:01:38;;;;;;;5.80;5.28;;;24.40;71.00;;;;;;4992007;28;20196;-70
2022/07/21 09:04:43;;;;;;;5.75;5.25;;;24.40;71.00;;;;;;5007993;28;20199;-71
2022/07/21 09:07:09;;;;;;;5.88;5.28;;;24.40;71.20;;;;;;4954704;28;20199;-71
2022/07/21 09:09:35;;;;;;;5.60;5.20;;;24.40;71.30;;;;;;4955212;28;20193;-71
2022/07/21 09:12:03;;;;;;;5.97;5.43;;;24.40;71.10;;;;;;4970441;28;20207;-70
2022/07/21 09:14:33;;;;;;;5.72;5.22;;;24.40;71.10;;;;;;4992205;28;20195;-70
2022/07/21 09:17:03;;;;;;;6.15;5.65;;;24.40;71.00;;;;;;4991662;28;20208;-70
2022/07/21 09:19:35;;;;;;;5.53;5.13;;;24.40;71.00;;;;;;5008388;28;20259;-70
2022/07/21 09:22:05;;;;;;;5.78;5.38;;;24.40;71.10;;;;;;4991130;28;20185;-70
2022/07/21 09:24:38;;;;;;;5.50;5.10;;;24.40;71.20;;;;;;5008283;28;20209;-70
2022/07/21 09:27:15;;;;;;;5.88;5.38;;;24.40;71.30;;;;;;4991463;28;20211;-70
2022/07/21 09:29:47;;;;;;;6.30;5.80;;;24.40;71.30;;;;;;5008060;28;20180;-70
2022/07/21 09:32:27;;;;;;;5.90;5.40;;;24.40;71.30;;;;;;4975177;28;20181;-71
2022/07/21 09:35:13;;;;;;;5.53;4.88;;;24.40;71.20;;;;;;4975675;28;20204;-71
2022/07/21 09:37:41;;;;;;;5.63;5.13;;;24.40;71.20;;;;;;4974895;28;20201;-71
2022/07/21 09:40:14;;;;;;;5.47;4.97;;;24.40;71.10;;;;;;4992212;28;20170;-70
2022/07/21 09:42:51;;;;;;;5.97;5.47;;;24.40;71.10;;;;;;4991369;28;20192;-70
2022/07/21 09:45:19;;;;;;;5.75;5.35;;;24.40;71.10;;;;;;4992656;28;20219;-70
2022/07/21 09:47:46;;;;;;;4.95;4.55;;;24.40;71.70;;;;;;4975164;28;20384;-70
2022/07/21 09:50:16;;;;;;;5.40;5.00;;;24.40;71.70;;;;;;5007353;28;20231;-71
2022/07/21 09:52:45;;;;;;;5.75;5.28;;;24.40;71.50;;;;;;4993706;28;20203;-70
2022/07/21 09:55:16;;;;;;;5.95;5.35;;;24.40;71.50;;;;;;5009671;28;20220;-70
2022/07/21 09:57:44;;;;;;;5.78;5.32;;;24.40;71.50;;;;;;4993306;28;20293;-70
2022/07/21 10:00:18;;;;;;;5.57;5.07;;;24.40;71.70;;;;;;4979963;28;20200;-70
2022/07/21 10:02:45;;;;;;;5.38;4.85;;;24.40;71.50;;;;;;4984063;28;20272;-70
2022/07/21 10:05:19;;;;;;;5.55;5.15;;;24.40;71.80;;;;;;5000190;28;20209;-70
2022/07/21 10:07:48;;;;;;;6.18;5.68;;;24.40;71.60;;;;;;5008166;28;20217;-70
2022/07/21 10:10:16;;;;;;;5.65;5.15;;;24.40;71.60;;;;;;5011591;28;20188;-70
2022/07/21 10:12:43;;;;;;;6.07;5.60;;;24.40;71.60;;;;;;4994921;28;20549;-70
2022/07/21 10:15:09;;;;;;;5.78;5.38;;;24.40;71.60;;;;;;4994787;28;20205;-70
2022/07/21 10:17:36;;;;;;;5.63;5.13;;;24.40;71.60;;;;;;5011182;28;20184;-70
2022/07/21 10:20:27;;;;;;;5.78;5.35;;;24.40;71.60;;;;;;4991327;28;20284;-68
2022/07/21 10:23:17;;;;;;;6.10;5.50;;;24.40;71.60;;;;;;4975560;28;20216;-70
2022/07/21 10:25:44;;;;;;;5.80;5.32;;;24.40;71.50;;;;;;5003357;28;20295;-70
2022/07/21 10:28:10;;;;;;;6.10;5.60;;;24.40;71.50;;;;;;4978838;28;20232;-70
2022/07/21 10:30:48;;;;;;;6.57;6.07;;;24.40;71.50;;;;;;4993911;28;20219;-70
2022/07/21 10:33:17;;;;;;;6.07;5.57;;;24.40;71.40;;;;;;5010957;28;20701;-70
2022/07/21 10:35:47;;;;;;;6.72;6.05;;;24.40;71.50;;;;;;4994123;28;20196;-69
2022/07/21 10:38:30;;;;;;;5.65;5.15;;;24.40;71.40;;;;;;4959716;28;20253;-70
2022/07/21 10:40:58;;;;;;;5.78;5.28;;;24.40;71.30;;;;;;5002251;28;20188;-71
2022/07/21 10:43:24;;;;;;;6.25;5.75;;;24.40;71.30;;;;;;4992921;28;20572;-70
2022/07/21 10:45:51;;;;;;;6.13;5.50;;;24.50;71.40;;;;;;4966473;28;20299;-71
2022/07/21 10:48:49;;;;;;;5.68;5.25;;;24.40;71.20;;;;;;5020870;28;20205;-71
2022/07/21 10:51:16;;;;;;;6.63;6.13;;;24.50;71.30;;;;;;4988275;28;20209;-71
2022/07/21 10:53:46;;;;;;;6.43;5.82;;;24.40;71.30;;;;;;4996126;28;20240;-71
2022/07/21 10:56:31;;;;;;;6.03;5.60;;;24.40;71.30;;;;;;5006996;28;20226;-71
2022/07/21 10:58:57;;;;;;;5.70;5.30;;;24.40;71.40;;;;;;4975930;28;20190;-70
2022/07/21 11:01:26;;;;;;;5.70;5.30;;;24.40;71.40;;;;;;4993362;28;20189;-71
2022/07/21 11:04:22;;;;;;;5.95;5.50;;;24.40;71.70;;;;;;4992299;28;20193;-71
2022/07/21 11:06:50;;;;;;;6.05;5.50;;;24.40;71.60;;;;;;4981416;28;20217;-69
2022/07/21 11:09:19;;;;;;;6.20;5.70;;;24.40;71.70;;;;;;4977802;28;20216;-70
2022/07/21 11:12:01;;;;;;;5.72;5.18;;;24.40;71.50;;;;;;4976916;28;20196;-71
2022/07/21 11:14:41;;;;;;;6.25;5.75;;;24.40;71.60;;;;;;4977693;28;20211;-71
2022/07/21 11:17:10;;;;;;;5.88;5.38;;;24.40;71.60;;;;;;4993425;28;20751;-70
2022/07/21 11:19:52;;;;;;;5.40;5.00;;;24.40;72.00;;;;;;4977443;28;20181;-70
2022/07/21 11:22:28;;;;;;;5.20;4.80;;;24.40;71.70;;;;;;4976633;28;20213;-70
2022/07/21 11:25:06;;;;;;;6.43;5.65;;;24.40;71.70;;;;;;4977617;28;20181;-70
2022/07/21 11:27:35;;;;;;;5.50;5.00;;;24.40;71.70;;;;;;4977474;28;20303;-70
2022/07/21 11:30:05;;;;;;;6.40;5.80;;;24.40;71.50;;;;;;4977200;28;20189;-70
2022/07/21 11:32:31;;;;;;;5.85;4.95;;;24.50;71.40;;;;;;4992979;28;20191;-70
2022/07/21 11:35:04;;;;;;;5.72;5.07;;;24.50;71.30;;;;;;4993640;28;20177;-70
2022/07/21 11:37:40;;;;;;;5.70;5.20;;;24.40;71.30;;;;;;4977344;28;20191;-70
2022/07/21 11:40:19;;;;;;;6.25;5.60;;;24.50;71.30;;;;;;4977084;28;20184;-70
2022/07/21 11:42:50;;;;;;;5.35;4.95;;;24.50;71.80;;;;;;4976733;28;20193;-70
2022/07/21 11:45:17;;;;;;;5.20;4.80;;;24.40;71.70;;;;;;4977214;28;20204;-71
2022/07/21 11:47:43;;;;;;;5.40;4.97;;;24.40;71.70;;;;;;4976767;28;20267;-70
2022/07/21 11:50:11;;;;;;;5.20;4.78;;;24.40;71.70;;;;;;4976846;28;20173;-70
2022/07/21 11:52:40;;;;;;;6.47;5.88;;;24.50;71.80;;;;;;4992119;28;20191;-70
2022/07/21 11:55:10;;;;;;;5.72;5.22;;;24.50;71.80;;;;;;4976845;28;20566;-71
2022/07/21 11:57:41;;;;;;;5.78;5.28;;;24.50;71.40;;;;;;4992884;28;20264;-70
2022/07/21 12:00:08;;;;;;;5.80;5.30;;;24.50;71.50;;;;;;4992177;28;20193;-70
2022/07/21 12:02:43;;;;;;;5.55;5.05;;;24.50;71.70;;;;;;4993304;28;20601;-70
2022/07/21 12:05:09;;;;;;;5.88;5.38;;;24.40;71.20;;;;;;4992844;28;20228;-70
2022/07/21 12:07:38;;;;;;;5.72;5.22;;;24.40;71.20;;;;;;4992856;28;20216;-71
2022/07/21 12:10:09;;;;;;;5.28;4.88;;;24.40;71.20;;;;;;4976572;28;20180;-71
2022/07/21 12:12:43;;;;;;;5.78;4.95;;;24.50;71.10;;;;;;4992306;28;20185;-70
2022/07/21 12:15:28;;;;;;;5.40;4.97;;;24.50;71.20;;;;;;4991747;28;20224;-71
2022/07/21 12:18:04;;;;;;;5.20;4.80;;;24.50;71.20;;;;;;4992866;28;20181;-70
2022/07/21 12:20:34;;;;;;;5.65;5.15;;;24.50;71.40;;;;;;4991942;28;20231;-70
2022/07/21 12:23:05;;;;;;;5.20;4.80;;;24.50;71.40;;;;;;4992433;28;20613;-70
2022/07/21 12:25:42;;;;;;;5.65;5.22;;;24.50;71.80;;;;;;4992406;28;20229;-70
2022/07/21 12:28:08;;;;;;;5.78;4.93;;;24.50;71.80;;;;;;5008542;28;20223;-70
2022/07/21 12:30:42;;;;;;;5.38;4.88;;;24.50;71.30;;;;;;4991758;28;20189;-70
2022/07/21 12:33:12;;;;;;;5.40;4.90;;;24.50;71.20;;;;;;4992662;28;20176;-70
2022/07/21 12:35:42;;;;;;;5.30;4.90;;;24.50;71.50;;;;;;5002624;28;20235;-71
2022/07/21 12:38:12;;;;;;;5.10;4.70;;;24.50;71.20;;;;;;4956442;28;20194;-70
2022/07/21 12:40:57;;;;;;;5.90;5.40;;;24.50;71.10;;;;;;4956218;28;20189;-70
2022/07/21 12:43:25;;;;;;;4.57;4.15;;;24.50;71.20;;;;;;4956537;28;20189;-71
2022/07/21 12:45:52;;;;;;;5.47;4.55;;;24.50;71.10;;;;;;4972908;28;20212;-70
2022/07/21 12:48:26;;;;;;;5.30;4.80;;;24.50;71.00;;;;;;4972625;28;20592;-71
2022/07/21 12:51:12;;;;;;;5.85;5.38;;;24.50;70.90;;;;;;4972089;28;20621;-70
2022/07/21 12:53:48;;;;;;;4.75;4.35;;;24.50;70.90;;;;;;4972416;28;20229;-70
2022/07/21 12:56:23;;;;;;;5.38;4.88;;;24.50;70.90;;;;;;4972054;28;20221;-71
2022/07/21 12:58:51;;;;;;;5.63;5.13;;;24.50;70.70;;;;;;4956727;28;20185;-70